KHB103 UHHH-UHMM
Flight info
| Callsign | KHB103 |
|---|---|
| Flight time | N/A |
| Altitude | 37000 |
| Route | TOMSU2U TOMSU N222 NA L160 BANOT BANOT5J |
| Aircraft | A320/M-SDE3FGHIRWY/LB1 |
Departure
| Time | N/A |
|---|---|
| Airport | Khabarovsk Novy Airport (UHHH) |
Arrival
| Time | 2026-04-23 03:52 |
|---|---|
| Airport | Sokol Airport (UHMM) |
| Time | Latitude | Longitude | Altitude | Speed | Heading |
|---|---|---|---|---|---|
| 2026-04-23 03:13 | 57.46813 | 145.81042 | 35156 ft | 427 kts | 37° |
| 2026-04-23 03:14 | 57.51535 | 145.87625 | 35151 ft | 428 kts | 37° |
| 2026-04-23 03:14 | 57.56295 | 145.94277 | 35159 ft | 428 kts | 37° |
| 2026-04-23 03:15 | 57.61050 | 146.00954 | 35161 ft | 428 kts | 37° |
| 2026-04-23 03:15 | 57.65801 | 146.07642 | 35147 ft | 428 kts | 37° |
| 2026-04-23 03:16 | 57.70548 | 146.14339 | 35144 ft | 428 kts | 37° |
| 2026-04-23 03:16 | 57.77671 | 146.24434 | 35141 ft | 428 kts | 37° |
| 2026-04-23 03:17 | 57.82406 | 146.31176 | 35147 ft | 428 kts | 37° |
| 2026-04-23 03:17 | 57.87112 | 146.37904 | 35137 ft | 428 kts | 37° |
| 2026-04-23 03:18 | 57.91837 | 146.44686 | 35139 ft | 428 kts | 37° |
| 2026-04-23 03:18 | 57.96571 | 146.51487 | 35147 ft | 428 kts | 37° |
| 2026-04-23 03:19 | 58.01300 | 146.58313 | 35144 ft | 428 kts | 37° |
| 2026-04-23 03:19 | 58.06018 | 146.65158 | 35143 ft | 428 kts | 37° |
| 2026-04-23 03:20 | 58.10741 | 146.72029 | 35143 ft | 428 kts | 37° |
| 2026-04-23 03:20 | 58.15457 | 146.78907 | 35133 ft | 428 kts | 37° |
| 2026-04-23 03:21 | 58.20162 | 146.85811 | 35133 ft | 427 kts | 37° |
| 2026-04-23 03:21 | 58.24864 | 146.92698 | 35130 ft | 427 kts | 37° |
| 2026-04-23 03:22 | 58.29531 | 146.99574 | 35139 ft | 427 kts | 37° |
| 2026-04-23 03:22 | 58.34221 | 147.06512 | 35139 ft | 427 kts | 37° |
| 2026-04-23 03:23 | 58.38909 | 147.13474 | 35138 ft | 427 kts | 37° |
| 2026-04-23 03:23 | 58.43591 | 147.20444 | 35132 ft | 427 kts | 37° |
| 2026-04-23 03:24 | 58.48271 | 147.27433 | 35126 ft | 426 kts | 37° |
| 2026-04-23 03:24 | 58.52937 | 147.34425 | 35122 ft | 426 kts | 38° |
| 2026-04-23 03:25 | 58.57595 | 147.41443 | 35127 ft | 426 kts | 37° |
| 2026-04-23 03:25 | 58.62246 | 147.48466 | 35123 ft | 425 kts | 38° |
| 2026-04-23 03:26 | 58.66884 | 147.55504 | 35122 ft | 425 kts | 37° |
| 2026-04-23 03:26 | 58.71523 | 147.62547 | 35116 ft | 425 kts | 37° |
| 2026-04-23 03:27 | 58.76156 | 147.69616 | 35110 ft | 424 kts | 37° |
| 2026-04-23 03:27 | 58.80741 | 147.76651 | 35115 ft | 424 kts | 38° |
| 2026-04-23 03:28 | 58.85352 | 147.83751 | 35123 ft | 424 kts | 37° |
| 2026-04-23 03:28 | 58.89968 | 147.90867 | 35125 ft | 424 kts | 37° |
| 2026-04-23 03:29 | 58.94577 | 147.97988 | 35119 ft | 424 kts | 37° |
| 2026-04-23 03:29 | 58.99178 | 148.05130 | 35128 ft | 424 kts | 38° |
| 2026-04-23 03:30 | 59.03767 | 148.12299 | 35130 ft | 423 kts | 37° |
| 2026-04-23 03:30 | 59.08354 | 148.19468 | 34437 ft | 425 kts | 37° |
| 2026-04-23 03:31 | 59.10663 | 148.23094 | 32779 ft | 428 kts | 37° |
| 2026-04-23 03:31 | 59.12992 | 148.26759 | 31029 ft | 435 kts | 38° |
| 2026-04-23 03:31 | 59.15350 | 148.30478 | 30171 ft | 433 kts | 38° |
| 2026-04-23 03:31 | 59.17692 | 148.34171 | 29240 ft | 431 kts | 37° |
| 2026-04-23 03:32 | 59.19987 | 148.37793 | 28732 ft | 420 kts | 38° |
| 2026-04-23 03:32 | 59.22240 | 148.41363 | 28075 ft | 414 kts | 38° |
| 2026-04-23 03:32 | 59.24428 | 148.44836 | 27453 ft | 409 kts | 38° |
| 2026-04-23 03:32 | 59.26623 | 148.48323 | 26829 ft | 404 kts | 38° |
| 2026-04-23 03:33 | 59.28788 | 148.51764 | 26227 ft | 399 kts | 38° |
| 2026-04-23 03:33 | 59.30929 | 148.55174 | 25635 ft | 395 kts | 38° |
| 2026-04-23 03:33 | 59.33053 | 148.58555 | 25037 ft | 392 kts | 38° |
| 2026-04-23 03:33 | 59.35153 | 148.61907 | 24455 ft | 388 kts | 38° |
| 2026-04-23 03:34 | 59.37236 | 148.65247 | 23876 ft | 385 kts | 38° |
| 2026-04-23 03:34 | 59.39298 | 148.68563 | 23255 ft | 382 kts | 38° |
| 2026-04-23 03:34 | 59.41338 | 148.71846 | 22700 ft | 377 kts | 38° |
| 2026-04-23 03:34 | 59.43348 | 148.75088 | 22194 ft | 372 kts | 38° |
| 2026-04-23 03:35 | 59.45338 | 148.78303 | 21694 ft | 367 kts | 38° |
| 2026-04-23 03:35 | 59.47298 | 148.81470 | 21226 ft | 363 kts | 38° |
| 2026-04-23 03:35 | 59.49235 | 148.84602 | 20767 ft | 358 kts | 38° |
| 2026-04-23 03:35 | 59.51148 | 148.87697 | 20321 ft | 354 kts | 38° |
| 2026-04-23 03:36 | 59.53039 | 148.90757 | 19889 ft | 350 kts | 38° |
| 2026-04-23 03:36 | 59.54909 | 148.93786 | 19452 ft | 346 kts | 38° |
| 2026-04-23 03:36 | 59.56750 | 148.96784 | 19029 ft | 342 kts | 38° |
| 2026-04-23 03:36 | 59.58576 | 148.99769 | 18598 ft | 339 kts | 38° |
| 2026-04-23 03:37 | 59.60387 | 149.02729 | 18116 ft | 337 kts | 38° |
| 2026-04-23 03:37 | 59.62176 | 149.05663 | 17674 ft | 333 kts | 38° |
| 2026-04-23 03:37 | 59.63949 | 149.08568 | 17225 ft | 329 kts | 38° |
| 2026-04-23 03:37 | 59.65707 | 149.11447 | 16783 ft | 327 kts | 38° |
| 2026-04-23 03:38 | 59.67346 | 149.14542 | 16284 ft | 327 kts | 47° |
| 2026-04-23 03:38 | 59.68657 | 149.18242 | 15780 ft | 330 kts | 58° |
| 2026-04-23 03:38 | 59.69729 | 149.22259 | 15272 ft | 330 kts | 59° |
| 2026-04-23 03:38 | 59.70788 | 149.26227 | 14766 ft | 330 kts | 59° |
| 2026-04-23 03:39 | 59.71863 | 149.30231 | 14253 ft | 330 kts | 58° |
| 2026-04-23 03:39 | 59.72942 | 149.34254 | 13717 ft | 330 kts | 59° |
| 2026-04-23 03:39 | 59.74014 | 149.38265 | 13161 ft | 329 kts | 59° |
| 2026-04-23 03:39 | 59.75078 | 149.42257 | 12625 ft | 327 kts | 59° |
| 2026-04-23 03:40 | 59.76140 | 149.46236 | 12101 ft | 325 kts | 59° |
| 2026-04-23 03:40 | 59.77192 | 149.50184 | 11564 ft | 323 kts | 59° |
| 2026-04-23 03:40 | 59.78237 | 149.54116 | 11020 ft | 322 kts | 59° |
| 2026-04-23 03:40 | 59.79271 | 149.58027 | 10620 ft | 315 kts | 59° |
| 2026-04-23 03:41 | 59.80262 | 149.61795 | 10491 ft | 301 kts | 59° |
| 2026-04-23 03:41 | 59.81216 | 149.65411 | 10358 ft | 290 kts | 59° |
| 2026-04-23 03:41 | 59.82135 | 149.68901 | 10233 ft | 279 kts | 59° |
| 2026-04-23 03:41 | 59.83021 | 149.72279 | 10049 ft | 273 kts | 59° |
| 2026-04-23 03:42 | 59.83890 | 149.75596 | 9870 ft | 269 kts | 59° |
| 2026-04-23 03:42 | 59.84759 | 149.78890 | 9730 ft | 269 kts | 59° |
| 2026-04-23 03:42 | 59.85631 | 149.82208 | 9266 ft | 273 kts | 59° |
| 2026-04-23 03:42 | 59.86498 | 149.85521 | 8863 ft | 267 kts | 60° |
| 2026-04-23 03:43 | 59.87356 | 149.88801 | 8125 ft | 268 kts | 60° |
| 2026-04-23 03:43 | 59.88216 | 149.92091 | 7784 ft | 265 kts | 60° |
| 2026-04-23 03:43 | 59.89050 | 149.95306 | 7196 ft | 260 kts | 61° |
| 2026-04-23 03:43 | 59.89878 | 149.98493 | 6543 ft | 258 kts | 62° |
| 2026-04-23 03:44 | 59.90696 | 150.01639 | 5867 ft | 253 kts | 62° |
| 2026-04-23 03:44 | 59.91500 | 150.04734 | 5243 ft | 252 kts | 62° |
| 2026-04-23 03:44 | 59.92225 | 150.07856 | 5042 ft | 242 kts | 70° |
| 2026-04-23 03:44 | 59.92517 | 150.11068 | 4986 ft | 230 kts | 85° |
| 2026-04-23 03:45 | 59.92498 | 150.14175 | 4933 ft | 218 kts | 89° |
| 2026-04-23 03:45 | 59.92427 | 150.17108 | 4862 ft | 206 kts | 89° |
| 2026-04-23 03:45 | 59.92361 | 150.19885 | 4779 ft | 195 kts | 89° |
| 2026-04-23 03:45 | 59.92303 | 150.22456 | 4724 ft | 182 kts | 89° |
| 2026-04-23 03:46 | 59.92247 | 150.24877 | 4600 ft | 167 kts | 89° |
| 2026-04-23 03:46 | 59.92197 | 150.27075 | 4542 ft | 151 kts | 88° |
| 2026-04-23 03:46 | 59.92151 | 150.29076 | 4473 ft | 138 kts | 87° |
| 2026-04-23 03:46 | 59.92109 | 150.30939 | 4474 ft | 134 kts | 88° |
| 2026-04-23 03:47 | 59.92067 | 150.32784 | 4294 ft | 133 kts | 88° |
| 2026-04-23 03:47 | 59.92025 | 150.34621 | 4111 ft | 132 kts | 87° |
| 2026-04-23 03:47 | 59.91982 | 150.36450 | 3930 ft | 132 kts | 87° |
| 2026-04-23 03:47 | 59.91939 | 150.38274 | 3746 ft | 132 kts | 87° |
| 2026-04-23 03:48 | 59.91896 | 150.40095 | 3565 ft | 131 kts | 87° |
| 2026-04-23 03:48 | 59.91853 | 150.41918 | 3385 ft | 132 kts | 87° |
| 2026-04-23 03:48 | 59.91808 | 150.43747 | 3195 ft | 132 kts | 87° |
| 2026-04-23 03:48 | 59.91764 | 150.45571 | 3010 ft | 133 kts | 86° |
| 2026-04-23 03:49 | 59.91719 | 150.47419 | 2821 ft | 132 kts | 87° |
| 2026-04-23 03:49 | 59.91675 | 150.49235 | 2630 ft | 132 kts | 87° |
| 2026-04-23 03:49 | 59.91630 | 150.51071 | 2447 ft | 133 kts | 88° |
| 2026-04-23 03:49 | 59.91584 | 150.52898 | 2261 ft | 132 kts | 88° |
| 2026-04-23 03:50 | 59.91539 | 150.54718 | 2071 ft | 132 kts | 87° |
| 2026-04-23 03:50 | 59.91494 | 150.56541 | 1868 ft | 132 kts | 88° |
| 2026-04-23 03:50 | 59.91448 | 150.58375 | 1666 ft | 133 kts | 88° |
| 2026-04-23 03:50 | 59.91401 | 150.60220 | 1462 ft | 133 kts | 87° |
| 2026-04-23 03:51 | 59.91354 | 150.62078 | 1275 ft | 136 kts | 89° |
| 2026-04-23 03:51 | 59.91306 | 150.63958 | 1087 ft | 136 kts | 90° |
| 2026-04-23 03:51 | 59.91258 | 150.65827 | 912 ft | 135 kts | 90° |
| 2026-04-23 03:51 | 59.91209 | 150.67702 | 733 ft | 135 kts | 91° |
| 2026-04-23 03:52 | 59.91160 | 150.69572 | 570 ft | 134 kts | 90° |
| 2026-04-23 03:52 | 59.91126 | 150.71185 | 578 ft | 99 kts | 92° |
| 2026-04-23 03:52 | 59.91099 | 150.72112 | 577 ft | 37 kts | 94° |
| 2026-04-23 03:52 | 59.91088 | 150.72436 | 578 ft | 21 kts | 94° |
| 2026-04-23 03:53 | 59.91091 | 150.72614 | 584 ft | 13 kts | 68° |
| 2026-04-23 03:53 | 59.91143 | 150.72681 | 580 ft | 1 kts | 12° |
| 2026-04-23 03:53 | 59.91154 | 150.72685 | 579 ft | 3 kts | 5° |
| 2026-04-23 03:53 | 59.91186 | 150.72686 | 579 ft | 6 kts | 2° |
| 2026-04-23 03:54 | 59.91232 | 150.72691 | 578 ft | 6 kts | 2° |
| 2026-04-23 03:54 | 59.91270 | 150.72685 | 580 ft | 5 kts | 346° |
| 2026-04-23 03:54 | 59.91298 | 150.72666 | 579 ft | 4 kts | 339° |
| 2026-04-23 03:54 | 59.91321 | 150.72654 | 581 ft | 4 kts | 352° |
| 2026-04-23 03:55 | 59.91345 | 150.72652 | 578 ft | 3 kts | 358° |
| 2026-04-23 03:55 | 59.91351 | 150.72652 | 579 ft | 0 kts | 358° |